Time;durP1;ratioP1;P1;durP2;ratioP2;P2;SDS_P1;SDS_P2;PMS_P1;PMS_P2;Temp;Humidity;BMP_temperature;BMP_pressure;BME280_temperature;BME280_humidity;BME280_pressure;Samples;Min_cycle;Max_cycle;Signal;HPM_P1;HPM_P2
2022/01/25 00:08:25;;;;;;;62.58;36.08;;;;;;;-4.12;93.57;97165.09;5008007;28;20092;-58
2022/01/25 00:26:48;;;;;;;59.72;36.60;;;;;;;-4.32;94.62;97169.56;5013655;28;20036;-56
2022/01/25 00:29:27;;;;;;;59.75;36.33;;;;;;;-4.34;93.88;97171.28;5013729;28;20026;-58
2022/01/25 00:31:53;;;;;;;56.25;35.17;;;;;;;-4.37;94.55;97176.47;5013408;28;20029;-57
2022/01/25 00:34:19;;;;;;;55.92;33.85;;;;;;;-4.38;94.35;97179.91;5013280;28;20037;-56
2022/01/25 00:36:44;;;;;;;49.58;33.15;;;;;;;-4.42;94.19;97185.97;5013936;28;20120;-57
2022/01/25 00:39:10;;;;;;;44.95;31.77;;;;;;;-4.44;94.52;97179.97;5013238;28;20477;-56
2022/01/25 00:41:35;;;;;;;48.05;30.90;;;;;;;-4.44;94.89;97190.25;5012571;28;20092;-57
2022/01/25 00:44:02;;;;;;;45.42;31.10;;;;;;;-4.46;94.45;97181.72;5013219;28;20026;-57
2022/01/25 00:46:28;;;;;;;39.08;26.77;;;;;;;-4.49;94.36;97179.16;5012974;28;20026;-55
2022/01/25 00:48:58;;;;;;;36.28;25.05;;;;;;;-4.48;94.98;97183.44;5013646;28;20029;-56
2022/01/25 00:54:01;;;;;;;45.58;29.00;;;;;;;-4.41;94.65;97176.53;5013071;28;20026;-56
2022/01/25 00:56:30;;;;;;;48.42;30.20;;;;;;;-4.43;95.09;97173.97;5012977;28;20045;-58
2022/01/25 00:58:57;;;;;;;41.67;26.20;;;;;;;-4.43;94.45;97173.09;5012869;28;20034;-56
2022/01/25 01:01:23;;;;;;;45.15;28.13;;;;;;;-4.40;94.27;97170.53;5013363;28;20022;-55
2022/01/25 01:03:49;;;;;;;44.35;30.35;;;;;;;-4.42;94.66;97173.09;5012868;28;20105;-57
2022/01/25 01:06:15;;;;;;;46.67;30.17;;;;;;;-4.43;94.10;97188.53;5012931;28;20026;-55
2022/01/25 01:08:41;;;;;;;46.03;29.27;;;;;;;-4.49;94.53;97172.28;5011838;28;20025;-56
2022/01/25 01:11:11;;;;;;;57.35;35.08;;;;;;;-4.51;94.15;97178.34;5012859;28;20149;-55
2022/01/25 01:13:55;;;;;;;;;;;;;;;;;;;;;
2022/01/25 01:32:33;;;;;;;54.92;35.85;;;;;;;-4.61;96.17;97180.13;5012361;28;20046;-56
2022/01/25 01:43:00;;;;;;;47.33;32.65;;;;;;;-4.63;95.07;97195.53;5012001;28;20033;-57
2022/01/25 01:45:46;;;;;;;45.92;30.45;;;;;;;-4.62;95.14;97199.00;5010693;28;20030;-57
2022/01/25 01:48:25;;;;;;;;;;;;;;;-4.68;95.01;97191.28;5011757;28;20021;-56
2022/01/25 01:50:51;;;;;;;40.97;26.92;;;;;;;-4.68;95.29;97192.16;5010744;28;19913;-56
2022/01/25 01:53:17;;;;;;;41.35;27.08;;;;;;;-4.68;95.42;97188.72;5012784;28;20386;-57
2022/01/25 01:55:42;;;;;;;41.22;28.52;;;;;;;-4.71;94.45;97191.31;5011970;28;20069;-57
2022/01/25 01:58:08;;;;;;;35.45;25.13;;;;;;;-4.77;95.35;97193.09;5011848;28;20037;-58
2022/01/25 02:00:38;;;;;;;40.15;25.02;;;;;;;-4.82;94.81;97199.13;5011988;28;20080;-57
2022/01/25 02:03:06;;;;;;;33.90;24.52;;;;;;;-4.85;95.06;97196.56;5012182;28;20053;-57
2022/01/25 02:05:32;;;;;;;29.95;22.55;;;;;;;-4.91;95.27;97190.63;5012240;28;20335;-56
2022/01/25 02:07:58;;;;;;;26.33;19.58;;;;;;;-4.88;96.21;97189.72;5012426;28;20026;-57
2022/01/25 02:10:24;;;;;;;23.52;18.85;;;;;;;-4.83;96.58;97188.00;5012187;28;20037;-57
2022/01/25 02:12:51;;;;;;;30.88;21.60;;;;;;;-4.82;96.32;97188.84;5012093;28;20068;-55
2022/01/25 02:15:18;;;;;;;30.98;21.48;;;;;;;-4.84;95.92;97195.69;5012015;28;20032;-55
2022/01/25 02:23:00;;;;;;;27.00;19.52;;;;;;;-4.81;96.30;97193.09;5011782;28;20519;-57
2022/01/25 02:25:25;;;;;;;27.83;19.05;;;;;;;-4.83;96.21;97195.72;5010497;28;20022;-56
2022/01/25 02:27:52;;;;;;;26.25;18.95;;;;;;;-4.84;96.71;97188.00;5011951;28;20025;-57
2022/01/25 02:30:17;;;;;;;26.65;20.27;;;;;;;-4.86;96.66;97192.28;5011732;28;20401;-55
2022/01/25 02:32:43;;;;;;;24.52;18.65;;;;;;;-4.91;96.45;97188.03;5011776;28;20022;-55
2022/01/25 02:35:09;;;;;;;25.08;18.70;;;;;;;-4.88;96.13;97179.44;5012127;28;20022;-55
2022/01/25 02:37:34;;;;;;;29.75;20.38;;;;;;;-4.91;96.12;97182.03;5010458;28;20112;-55
2022/01/25 02:40:00;;;;;;;25.98;20.08;;;;;;;-4.91;96.02;97179.47;5011652;28;20080;-55
2022/01/25 02:42:26;;;;;;;25.35;19.20;;;;;;;-4.94;96.33;97179.50;5011626;28;20018;-57
2022/01/25 02:44:51;;;;;;;25.40;18.75;;;;;;;-4.96;96.29;97182.09;5011663;28;20485;-57
2022/01/25 02:50:02;;;;;;;28.27;17.98;;;;;;;-4.98;96.59;97173.50;5011472;28;20119;-57
2022/01/25 02:52:28;;;;;;;26.38;19.77;;;;;;;-5.01;95.95;97178.69;5011471;28;20026;-57
2022/01/25 02:54:54;;;;;;;26.58;18.55;;;;;;;-5.05;96.36;97172.72;5011472;28;20022;-57
2022/01/25 02:57:20;;;;;;;23.48;18.00;;;;;;;-5.02;96.07;97174.41;5011339;28;20022;-58
2022/01/25 02:59:45;;;;;;;25.58;18.80;;;;;;;-5.03;96.59;97175.28;5010140;28;20635;-58
2022/01/25 03:02:11;;;;;;;23.13;16.70;;;;;;;-5.07;96.77;97184.72;5011382;28;20541;-57
2022/01/25 03:04:37;;;;;;;23.60;17.35;;;;;;;-5.03;96.95;97178.72;5011177;28;20152;-56
2022/01/25 03:07:03;;;;;;;23.50;17.95;;;;;;;-5.05;96.62;97183.00;5009775;28;20621;-57
2022/01/25 03:09:29;;;;;;;23.30;16.73;;;;;;;-5.06;96.66;97183.00;5010538;28;20026;-57
2022/01/25 03:11:56;;;;;;;20.30;16.90;;;;;;;-5.04;96.26;97191.53;5011060;28;20030;-58
2022/01/25 03:14:25;;;;;;;21.30;17.00;;;;;;;-5.05;95.66;97187.28;5011028;28;20109;-57
2022/01/25 03:22:06;;;;;;;18.88;16.17;;;;;;;-5.05;96.29;97188.13;5010340;28;20493;-56
2022/01/25 03:24:32;;;;;;;20.92;15.18;;;;;;;-5.07;96.00;97189.00;5010806;28;20556;-57
2022/01/25 03:26:57;;;;;;;22.90;15.48;;;;;;;-5.13;96.44;97189.03;5010948;28;20037;-57
2022/01/25 03:29:23;;;;;;;19.38;15.90;;;;;;;-5.14;96.58;97193.31;5009391;28;20045;-57
2022/01/25 03:31:49;;;;;;;19.30;15.25;;;;;;;-5.15;96.12;97201.88;5010788;28;20030;-56
2022/01/25 03:34:14;;;;;;;20.90;15.75;;;;;;;-5.16;96.58;97192.47;5011593;28;20087;-57
2022/01/25 03:36:39;;;;;;;19.40;14.65;;;;;;;-5.16;96.63;97194.22;5010807;28;20441;-56
2022/01/25 03:39:06;;;;;;;21.20;15.88;;;;;;;-5.20;96.57;97204.47;5011372;28;20022;-55
2022/01/25 03:41:33;;;;;;;20.05;15.55;;;;;;;-5.19;95.94;97198.50;5010672;28;20052;-56
2022/01/25 03:43:59;;;;;;;19.00;13.82;;;;;;;-5.18;96.41;97199.34;5011061;28;20045;-57
2022/01/25 03:52:12;;;;;;;18.60;13.93;;;;;;;-5.19;96.23;97200.19;5011875;28;20512;-56
2022/01/25 03:54:37;;;;;;;16.92;13.38;;;;;;;-5.14;95.85;97197.63;5014759;28;20026;-56
2022/01/25 03:57:03;;;;;;;18.55;15.13;;;;;;;-5.18;96.53;97189.06;5014821;28;20034;-52
2022/01/25 03:59:29;;;;;;;18.63;13.88;;;;;;;-5.21;96.17;97192.50;5014597;28;20030;-55
2022/01/25 04:01:55;;;;;;;19.63;13.65;;;;;;;-5.26;96.31;97189.09;5014498;28;20551;-56
2022/01/25 04:04:23;;;;;;;25.10;14.50;;;;;;;-5.28;97.19;97190.84;5014517;28;20025;-56
2022/01/25 04:06:53;;;;;;;17.42;14.50;;;;;;;-5.29;96.78;97189.13;5014968;28;20030;-55
2022/01/25 04:09:19;;;;;;;18.58;14.25;;;;;;;-5.33;97.08;97190.00;5014391;28;20539;-55
2022/01/25 04:11:45;;;;;;;17.23;13.77;;;;;;;-5.34;96.88;97191.72;5014496;28;20037;-57
2022/01/25 04:14:11;;;;;;;17.40;13.70;;;;;;;-5.37;97.16;97189.16;5014492;28;20013;-56
2022/01/25 04:16:50;;;;;;;16.33;13.07;;;;;;;-5.39;97.59;97185.75;5014477;28;20033;-55
2022/01/25 04:27:24;;;;;;;16.63;13.60;;;;;;;-5.30;95.83;97182.28;5009205;28;20044;-57
2022/01/25 04:29:49;;;;;;;17.08;13.65;;;;;;;-5.33;95.98;97188.28;5013924;28;20033;-57
2022/01/25 04:32:15;;;;;;;17.40;13.52;;;;;;;-5.38;96.28;97184.88;5014680;28;20397;-56
2022/01/25 04:34:57;;;;;;;15.05;12.80;;;;;;;-5.39;96.63;97183.19;5013991;28;20033;-57
2022/01/25 04:51:30;;;;;;;16.67;12.00;;;;;;;-5.48;96.47;97181.50;5013298;28;20084;-57
2022/01/25 04:54:09;;;;;;;19.15;11.90;;;;;;;-5.48;96.35;97194.34;5013656;28;20086;-57
2022/01/25 04:56:43;;;;;;;14.90;11.18;;;;;;;-5.53;96.40;97190.94;5011199;28;20497;-56
2022/01/25 04:59:17;;;;;;;15.02;11.48;;;;;;;-5.55;96.56;97187.53;5007115;28;20032;-57
2022/01/25 05:01:43;;;;;;;15.00;11.67;;;;;;;-5.51;96.24;97185.81;5012272;28;20034;-55
2022/01/25 05:04:14;;;;;;;14.27;10.48;;;;;;;-5.50;96.19;97182.41;5013840;28;20668;-58
2022/01/25 05:06:42;;;;;;;15.13;12.18;;;;;;;-5.51;96.22;97188.38;5013174;28;20022;-58
2022/01/25 05:09:09;;;;;;;17.60;12.23;;;;;;;-5.52;96.27;97192.66;5013099;28;20038;-57
2022/01/25 05:11:38;;;;;;;13.88;11.57;;;;;;;-5.53;96.73;97190.09;5013006;28;20037;-56
2022/01/25 05:19:08;;;;;;;15.88;10.52;;;;;;;-5.57;95.89;97186.69;5013628;28;20141;-59
2022/01/25 05:24:19;;;;;;;11.43;9.45;;;;;;;-5.54;95.83;97189.25;5013041;28;20037;-56
2022/01/25 05:26:44;;;;;;;14.15;10.48;;;;;;;-5.55;95.58;97179.84;5013505;28;20029;-56
2022/01/25 05:29:09;;;;;;;12.23;9.73;;;;;;;-5.58;96.17;97182.44;5013007;28;20034;-56
2022/01/25 05:31:37;;;;;;;11.52;9.73;;;;;;;-5.61;95.70;97187.56;5011911;28;20026;-56
2022/01/25 05:34:03;;;;;;;13.27;10.18;;;;;;;-5.63;95.38;97181.59;5012788;28;20083;-54
2022/01/25 05:36:28;;;;;;;11.70;10.02;;;;;;;-5.63;96.43;97187.56;5012722;28;20017;-56
2022/01/25 05:38:58;;;;;;;14.13;12.63;;;;;;;-5.63;96.73;97192.69;5013000;28;20021;-56
2022/01/25 05:41:28;;;;;;;18.33;13.45;;;;;;;-5.57;97.05;97193.53;5012516;28;20156;-55
2022/01/25 05:46:32;;;;;;;16.00;12.40;;;;;;;-5.52;96.79;97187.53;5012312;28;20040;-55
2022/01/25 05:48:58;;;;;;;16.58;11.65;;;;;;;-5.51;96.38;97194.38;5012305;28;20505;-57
2022/01/25 05:51:23;;;;;;;12.95;11.52;;;;;;;-5.50;96.18;97195.22;5013057;28;20037;-57
2022/01/25 05:53:48;;;;;;;14.05;12.55;;;;;;;-5.53;95.99;97190.09;5012504;28;20537;-55
2022/01/25 05:56:14;;;;;;;17.42;12.55;;;;;;;-5.58;95.41;97190.13;5012226;28;20030;-56
2022/01/25 05:58:39;;;;;;;17.60;13.07;;;;;;;-5.60;95.62;97194.41;5012153;28;20022;-57
2022/01/25 06:01:04;;;;;;;15.93;13.07;;;;;;;-5.65;95.64;97186.72;5012110;28;20034;-56
2022/01/25 06:03:30;;;;;;;21.08;14.10;;;;;;;-5.66;95.84;97205.56;5012398;28;20029;-55
2022/01/25 06:05:55;;;;;;;18.73;14.70;;;;;;;-5.63;95.59;97207.25;5011526;28;20419;-56
2022/01/25 06:08:21;;;;;;;16.83;13.82;;;;;;;-5.63;96.52;97207.25;5012039;28;20034;-57
2022/01/25 06:10:46;;;;;;;19.42;14.27;;;;;;;-5.64;95.56;97208.97;5012284;28;20092;-56
2022/01/25 06:13:11;;;;;;;32.97;20.15;;;;;;;-5.62;95.15;97212.38;5010749;28;20397;-56
2022/01/25 06:15:37;;;;;;;26.13;19.33;;;;;;;-5.63;95.60;97218.38;5012375;28;20385;-55
2022/01/25 06:18:02;;;;;;;30.27;18.23;;;;;;;-5.62;95.65;97221.81;5010482;28;20042;-55
2022/01/25 06:20:28;;;;;;;21.42;17.23;;;;;;;-5.63;95.59;97220.94;5011133;28;20429;-58
2022/01/25 06:22:54;;;;;;;21.88;17.42;;;;;;;-5.67;95.54;97218.38;5011936;28;20037;-55
2022/01/25 06:25:20;;;;;;;20.98;16.70;;;;;;;-5.70;95.44;97228.66;5012358;28;20021;-57
2022/01/25 06:27:46;;;;;;;19.77;16.45;;;;;;;-5.71;95.53;97221.81;5011890;28;20823;-55
2022/01/25 06:30:15;;;;;;;19.60;15.98;;;;;;;-5.71;95.35;97227.81;5010915;28;20029;-56
2022/01/25 06:32:41;;;;;;;22.65;18.27;;;;;;;-5.77;95.75;97225.25;5012074;28;20029;-55
2022/01/25 06:35:07;;;;;;;30.60;20.38;;;;;;;-5.75;95.73;97220.97;5011704;28;20036;-56
2022/01/25 06:37:34;;;;;;;34.85;26.75;;;;;;;-5.76;95.39;97221.81;5011587;28;20386;-55
2022/01/25 06:40:00;;;;;;;31.23;24.38;;;;;;;-5.78;95.60;97221.84;5011458;28;20197;-56
2022/01/25 06:42:31;;;;;;;27.20;20.02;;;;;;;-5.78;95.91;97223.53;5010084;28;20062;-56
2022/01/25 06:45:00;;;;;;;25.13;19.50;;;;;;;-5.79;95.86;97220.13;5007551;28;20041;-56
2022/01/25 06:47:26;;;;;;;29.73;22.27;;;;;;;-5.84;95.41;97219.31;5010768;28;20034;-56
2022/01/25 06:49:51;;;;;;;36.22;24.83;;;;;;;-5.83;95.94;97226.13;5010785;28;20037;-60
2022/01/25 06:52:16;;;;;;;33.15;23.25;;;;;;;-5.79;95.44;97225.25;5010314;28;20525;-60
2022/01/25 06:54:42;;;;;;;35.38;25.00;;;;;;;-5.83;95.49;97228.69;5010302;28;20025;-58
2022/01/25 06:57:08;;;;;;;37.47;27.08;;;;;;;-5.79;96.82;97232.97;5009336;28;20038;-60
2022/01/25 06:59:34;;;;;;;33.47;23.17;;;;;;;-5.73;96.67;97231.22;5010998;28;20060;-60
2022/01/25 07:01:59;;;;;;;32.53;20.40;;;;;;;-5.68;97.18;97226.94;5009550;28;20102;-59
2022/01/25 07:04:24;;;;;;;28.95;20.88;;;;;;;-5.64;97.08;97233.75;5009611;28;20429;-59
2022/01/25 07:06:50;;;;;;;27.83;20.10;;;;;;;-5.62;96.78;97232.91;5010443;28;20018;-58
2022/01/25 07:09:15;;;;;;;25.52;20.73;;;;;;;-5.61;96.73;97228.63;5010249;28;20389;-59
2022/01/25 07:11:41;;;;;;;30.40;23.33;;;;;;;-5.61;96.22;97234.59;5009647;28;20065;-56
2022/01/25 07:14:06;;;;;;;35.38;25.30;;;;;;;-5.57;96.60;97235.47;5011171;28;20528;-60
2022/01/25 07:16:32;;;;;;;31.80;24.70;;;;;;;-5.56;96.39;97233.72;5009499;28;20030;-58
2022/01/25 07:18:57;;;;;;;33.47;24.70;;;;;;;-5.57;95.95;97232.03;5011424;28;20052;-59
2022/01/25 07:21:22;;;;;;;34.35;25.90;;;;;;;-5.56;96.16;97234.59;5010863;28;20405;-49
2022/01/25 07:23:48;;;;;;;40.55;28.30;;;;;;;-5.57;96.11;97224.31;5005040;28;20025;-50
2022/01/25 07:26:13;;;;;;;39.65;30.88;;;;;;;-5.60;95.81;97230.34;5010631;28;20057;-51
2022/01/25 07:28:39;;;;;;;39.08;29.95;;;;;;;-5.59;95.95;97231.19;5010012;28;20033;-50
2022/01/25 07:31:04;;;;;;;40.67;29.88;;;;;;;-5.56;96.07;97229.47;5008585;28;20039;-49
2022/01/25 07:33:30;;;;;;;37.00;28.92;;;;;;;-5.50;96.15;97231.16;5010619;28;20489;-52
2022/01/25 07:35:56;;;;;;;40.72;28.65;;;;;;;-5.48;95.70;97235.41;5010277;28;20022;-51
2022/01/25 07:38:21;;;;;;;36.08;28.05;;;;;;;-5.48;95.78;97232.84;5009748;28;20680;-50
2022/01/25 07:40:47;;;;;;;36.92;29.05;;;;;;;-5.48;95.17;97225.16;5009595;28;20112;-48
2022/01/25 07:43:12;;;;;;;39.63;26.85;;;;;;;-5.44;95.32;97240.53;5007539;28;20026;-49
2022/01/25 07:45:38;;;;;;;43.15;28.05;;;;;;;-5.43;96.05;97239.66;5010570;28;20105;-49
2022/01/25 07:48:06;;;;;;;39.17;28.88;;;;;;;-5.46;95.50;97238.81;5011027;28;20036;-49
2022/01/25 07:50:32;;;;;;;44.10;27.65;;;;;;;-5.49;96.24;97238.84;5008103;28;20030;-50
2022/01/25 07:52:58;;;;;;;38.40;27.63;;;;;;;-5.48;95.58;97237.16;5011012;28;20501;-51
2022/01/25 07:55:23;;;;;;;45.60;29.75;;;;;;;-5.47;96.19;97236.28;5010150;28;20033;-49
2022/01/25 07:57:49;;;;;;;50.05;32.08;;;;;;;-5.46;96.19;97233.69;5010634;28;20505;-49
2022/01/25 08:00:15;;;;;;;46.38;31.63;;;;;;;-5.42;95.97;97231.09;5009208;28;20034;-49
2022/01/25 08:02:41;;;;;;;45.45;29.60;;;;;;;-5.41;96.20;97232.84;5008466;28;20025;-51
2022/01/25 08:05:07;;;;;;;45.60;29.77;;;;;;;-5.39;96.12;97233.69;5009567;28;20481;-48
2022/01/25 08:07:33;;;;;;;47.40;29.13;;;;;;;-5.37;95.70;97234.53;5008350;28;20054;-49
2022/01/25 08:09:58;;;;;;;50.03;34.05;;;;;;;-5.34;95.56;97231.94;5009690;28;20054;-51
2022/01/25 08:12:24;;;;;;;44.65;29.15;;;;;;;-5.36;96.22;97229.38;5009657;28;20068;-48
2022/01/25 08:14:50;;;;;;;44.83;29.25;;;;;;;-5.34;95.99;97226.81;5010443;28;20397;-50
2022/01/25 08:17:17;;;;;;;52.88;30.70;;;;;;;-5.33;96.70;97228.53;5010482;28;20026;-52
2022/01/25 08:19:44;;;;;;;48.05;30.55;;;;;;;-5.32;96.60;97231.06;5009674;28;20053;-51
2022/01/25 08:22:11;;;;;;;44.53;27.85;;;;;;;-5.31;96.71;97229.38;5009156;28;20072;-52
2022/01/25 08:24:36;;;;;;;42.83;28.05;;;;;;;-5.32;96.50;97232.78;5009025;28;20034;-49
2022/01/25 08:27:01;;;;;;;44.45;29.75;;;;;;;-5.29;96.68;97229.38;5009672;28;20022;-50
2022/01/25 08:29:27;;;;;;;52.03;30.60;;;;;;;-5.23;96.61;97230.16;5008539;28;20036;-50
2022/01/25 08:31:52;;;;;;;45.33;29.42;;;;;;;-5.19;96.29;97237.03;5010051;28;20022;-52
2022/01/25 08:34:18;;;;;;;44.13;27.77;;;;;;;-5.19;96.54;97226.75;5009677;28;20018;-52
2022/01/25 08:36:43;;;;;;;47.58;29.83;;;;;;;-5.18;96.79;97227.59;5013122;28;20017;-50
2022/01/25 08:39:09;;;;;;;41.90;28.48;;;;;;;-5.17;96.89;97234.44;5013546;28;20386;-51
2022/01/25 08:41:35;;;;;;;49.92;32.40;;;;;;;-5.19;97.00;97231.88;5012742;28;20052;-50
2022/01/25 08:44:00;;;;;;;47.03;29.85;;;;;;;-5.14;96.93;97231.00;5012919;28;20461;-49
2022/01/25 08:46:26;;;;;;;48.22;31.40;;;;;;;-5.11;96.45;97233.56;4995167;28;20022;-49
2022/01/25 08:48:51;;;;;;;44.60;28.83;;;;;;;-5.07;96.24;97246.38;5012889;28;20038;-49
2022/01/25 08:51:17;;;;;;;40.20;26.00;;;;;;;-5.05;95.88;97238.66;5013264;28;20026;-51
2022/01/25 08:53:43;;;;;;;43.22;31.33;;;;;;;-5.03;96.24;97239.50;5012617;28;20034;-49
2022/01/25 08:56:08;;;;;;;48.13;30.77;;;;;;;-5.01;96.35;97234.34;5012860;28;20080;-49
2022/01/25 08:58:34;;;;;;;38.30;26.92;;;;;;;-4.97;96.71;97246.31;5013364;28;20030;-51
2022/01/25 09:01:00;;;;;;;36.50;26.13;;;;;;;-4.94;97.05;97239.47;5012781;28;20029;-53
2022/01/25 09:03:25;;;;;;;34.67;23.83;;;;;;;-4.91;97.55;97239.44;5012394;28;20026;-49
2022/01/25 09:05:51;;;;;;;29.10;21.25;;;;;;;-4.86;97.33;97241.13;5012526;28;20108;-49
2022/01/25 09:08:21;;;;;;;34.15;22.40;;;;;;;-4.81;96.97;97247.06;5011619;28;20121;-51
2022/01/25 09:10:52;;;;;;;33.88;23.77;;;;;;;-4.79;96.31;97245.34;5009940;28;20072;-52
2022/01/25 09:13:19;;;;;;;35.22;25.98;;;;;;;-4.74;97.17;97246.19;5011941;28;20022;-52
2022/01/25 09:15:45;;;;;;;34.45;24.27;;;;;;;-4.68;97.04;97243.56;5011800;28;20027;-49
2022/01/25 09:18:12;;;;;;;33.05;26.17;;;;;;;-4.50;96.99;97246.88;5011732;28;20415;-49
2022/01/25 09:20:37;;;;;;;34.30;24.42;;;;;;;-4.00;97.72;97237.00;5012039;28;20103;-51
2022/01/25 09:23:02;;;;;;;32.05;25.17;;;;;;;-3.35;96.83;97240.63;5012439;28;20592;-51
2022/01/25 09:25:29;;;;;;;31.75;25.10;;;;;;;-2.76;95.51;97232.97;5012384;28;20120;-50
2022/01/25 09:27:55;;;;;;;32.88;25.17;;;;;;;-2.16;95.50;97241.50;5012125;28;20030;-50
2022/01/25 09:30:20;;;;;;;28.70;23.73;;;;;;;-1.58;93.37;97237.91;5011876;28;20029;-52
2022/01/25 09:32:46;;;;;;;29.35;24.08;;;;;;;-1.11;91.86;97239.59;5012422;28;20076;-53
2022/01/25 09:35:11;;;;;;;46.78;27.77;;;;;;;-0.65;91.10;97241.16;5012420;28;20133;-51
2022/01/25 09:37:37;;;;;;;71.53;38.38;;;;;;;-0.13;89.84;97237.38;5012658;28;20113;-54
2022/01/25 09:40:03;;;;;;;34.72;22.33;;;;;;;0.26;85.94;97242.44;5012715;28;20033;-52
2022/01/25 09:42:30;;;;;;;20.63;15.38;;;;;;;0.67;82.86;97234.44;5012337;28;20034;-54
2022/01/25 09:44:55;;;;;;;29.33;20.35;;;;;;;1.12;83.05;97236.59;5013263;28;20417;-55
2022/01/25 09:47:21;;;;;;;24.75;16.58;;;;;;;1.25;81.61;97231.88;5012049;28;20026;-53
2022/01/25 09:49:46;;;;;;;24.63;12.02;;;;;;;1.32;77.29;97235.13;5012470;28;20025;-53
2022/01/25 09:52:12;;;;;;;14.02;8.57;;;;;;;1.66;76.50;97230.66;5012829;28;20552;-52
2022/01/25 09:54:37;;;;;;;10.43;5.68;;;;;;;1.94;73.90;97233.19;5011978;28;20624;-55
2022/01/25 09:57:05;;;;;;;10.68;6.88;;;;;;;2.27;73.54;97235.53;5011280;28;20028;-54
2022/01/25 09:59:31;;;;;;;8.90;5.35;;;;;;;2.73;73.59;97240.03;5011638;28;20022;-55
2022/01/25 10:01:57;;;;;;;6.15;5.55;;;;;;;3.05;71.89;97234.56;5011450;28;20477;-55
2022/01/25 10:04:33;;;;;;;5.55;4.97;;;;;;;3.28;71.26;97231.91;5011214;28;20657;-56
2022/01/25 10:06:58;;;;;;;5.95;5.43;;;;;;;3.35;70.32;97224.72;5009596;28;20033;-56
2022/01/25 10:09:25;;;;;;;5.15;4.65;;;;;;;3.38;61.60;97232.41;5011512;28;20456;-55
2022/01/25 10:11:51;;;;;;;5.45;4.95;;;;;;;3.57;63.32;97226.50;5011312;28;20029;-56
2022/01/25 10:14:17;;;;;;;5.60;5.10;;;;;;;3.61;62.80;97228.06;5009759;28;20469;-56
2022/01/25 10:16:43;;;;;;;6.63;6.03;;;;;;;3.60;63.66;97228.97;5011226;28;20113;-55
2022/01/25 10:19:12;;;;;;;11.73;8.85;;;;;;;3.62;65.65;97237.56;5011519;28;20103;-56
2022/01/25 10:21:39;;;;;;;12.63;9.18;;;;;;;3.85;62.33;97233.19;5009528;28;20118;-56
2022/01/25 10:24:08;;;;;;;12.20;8.95;;;;;;;3.62;64.13;97219.34;5011091;28;20042;-56
2022/01/25 10:26:47;;;;;;;11.20;8.60;;;;;;;3.74;64.12;97220.59;5010952;28;20035;-55
2022/01/25 10:29:16;;;;;;;9.48;6.45;;;;;;;3.64;61.91;97219.28;5010638;28;20152;-54
2022/01/25 10:31:51;;;;;;;8.75;7.82;;;;;;;3.54;64.17;97213.59;5010221;28;20501;-55
2022/01/25 10:34:23;;;;;;;10.10;8.35;;;;;;;3.37;65.24;97216.88;5009520;28;20025;-57
2022/01/25 10:36:49;;;;;;;10.68;8.90;;;;;;;3.53;64.57;97209.31;5009926;28;20100;-56
2022/01/25 10:39:42;;;;;;;10.48;8.63;;;;;;;3.80;63.47;97203.88;5010100;28;20525;-56
2022/01/25 10:42:11;;;;;;;10.90;9.80;;;;;;;3.91;64.80;97206.91;5008693;28;20125;-56
2022/01/25 10:44:49;;;;;;;13.57;9.63;;;;;;;4.15;62.79;97201.56;5011016;28;20464;-54
2022/01/25 10:47:15;;;;;;;11.25;10.10;;;;;;;4.09;62.99;97207.88;5009043;28;20113;-53
2022/01/25 10:49:45;;;;;;;11.38;9.93;;;;;;;4.46;63.08;97202.03;5009175;28;20041;-55
2022/01/25 10:52:10;;;;;;;10.25;9.15;;;;;;;4.84;60.55;97197.72;5009935;28;20044;-56
2022/01/25 10:54:40;;;;;;;11.88;8.93;;;;;;;5.19;58.90;97197.00;5005998;28;20104;-54
2022/01/25 10:57:19;;;;;;;10.93;8.80;;;;;;;5.17;59.26;97198.84;5005487;28;20120;-53
2022/01/25 10:59:58;;;;;;;14.98;9.60;;;;;;;5.19;58.47;97193.53;5005051;28;20041;-56
2022/01/25 11:02:23;;;;;;;11.07;9.88;;;;;;;5.24;58.57;97187.19;5005395;28;20585;-55
2022/01/25 11:04:49;;;;;;;12.27;8.57;;;;;;;5.40;59.28;97186.47;5005879;28;20097;-54
2022/01/25 11:07:14;;;;;;;11.02;9.23;;;;;;;5.60;57.64;97193.34;5004403;28;20675;-57
2022/01/25 11:09:44;;;;;;;9.73;8.65;;;;;;;5.88;57.33;97185.00;5004886;28;20076;-56
2022/01/25 11:12:14;;;;;;;10.27;8.48;;;;;;;5.96;53.98;97183.75;5005308;28;20029;-55
2022/01/25 11:14:50;;;;;;;9.73;8.73;;;;;;;5.79;55.76;97182.84;5006656;28;20910;-54
2022/01/25 11:17:16;;;;;;;9.80;8.80;;;;;;;5.95;54.07;97179.44;5003273;28;20022;-56
2022/01/25 11:19:42;;;;;;;12.40;8.85;;;;;;;6.00;53.72;97180.94;5005631;28;20033;-52
2022/01/25 11:22:11;;;;;;;10.15;8.48;;;;;;;6.00;52.88;97183.53;5004013;28;20040;-59
2022/01/25 11:24:38;;;;;;;12.73;9.63;;;;;;;6.09;52.89;97181.44;5004885;28;20036;-54
2022/01/25 11:27:05;;;;;;;10.68;8.48;;;;;;;5.91;53.79;97183.16;5006730;28;20034;-55
2022/01/25 11:29:34;;;;;;;10.95;8.57;;;;;;;6.01;53.79;97174.81;5006584;28;20089;-54
2022/01/25 11:32:04;;;;;;;11.43;9.05;;;;;;;5.70;53.21;97168.47;5005647;28;20068;-54
2022/01/25 11:34:33;;;;;;;12.80;9.90;;;;;;;5.82;53.07;97169.63;5004365;28;20085;-56
2022/01/25 11:37:07;;;;;;;8.18;7.35;;;;;;;6.01;51.34;97172.19;5003505;28;20030;-55
2022/01/25 11:39:34;;;;;;;12.15;7.80;;;;;;;5.61;53.05;97171.50;5004755;28;20406;-55
2022/01/25 11:42:10;;;;;;;9.75;7.63;;;;;;;5.67;52.85;97158.16;5004880;28;20034;-55
2022/01/25 11:44:56;;;;;;;11.73;8.95;;;;;;;6.15;52.31;97160.19;5005898;28;20033;-53
2022/01/25 11:47:33;;;;;;;9.88;7.70;;;;;;;6.53;50.09;97154.75;5004984;28;20029;-55
2022/01/25 11:50:02;;;;;;;10.43;7.88;;;;;;;6.42;50.30;97152.69;5004939;28;20065;-56
2022/01/25 11:52:30;;;;;;;8.35;7.45;;;;;;;6.43;50.08;97151.78;5005325;28;20083;-53
2022/01/25 11:55:20;;;;;;;8.90;7.72;;;;;;;6.44;49.99;97147.38;5006575;28;20036;-54
2022/01/25 11:57:56;;;;;;;8.05;7.25;;;;;;;6.69;48.89;97148.69;5000880;28;20036;-56
2022/01/25 12:00:34;;;;;;;8.95;7.22;;;;;;;7.03;47.70;97149.50;5004361;28;20692;-55
2022/01/25 12:03:01;;;;;;;8.88;7.97;;;;;;;7.28;47.90;97137.66;5004944;28;20018;-55
2022/01/25 12:05:27;;;;;;;9.88;8.85;;;;;;;7.28;47.20;97142.91;5005586;28;20109;-55
2022/01/25 12:08:05;;;;;;;9.40;8.00;;;;;;;7.20;47.12;97130.22;5007826;28;20557;-56
2022/01/25 12:10:35;;;;;;;12.88;7.90;;;;;;;6.97;49.24;97128.88;5009760;28;20490;-55
2022/01/25 12:13:13;;;;;;;12.32;8.65;;;;;;;7.31;48.86;97129.63;5013898;28;20018;-54
2022/01/25 12:15:39;;;;;;;10.27;8.20;;;;;;;7.56;49.26;97125.59;5011129;28;20026;-57
2022/01/25 12:18:27;;;;;;;11.18;8.50;;;;;;;7.58;46.50;97123.72;5014166;28;20133;-56
2022/01/25 12:20:52;;;;;;;10.60;9.52;;;;;;;7.18;47.34;97116.38;5011237;28;20066;-56
2022/01/25 12:23:20;;;;;;;11.90;9.25;;;;;;;6.85;48.23;97120.75;5014050;28;20076;-54
2022/01/25 12:25:51;;;;;;;14.43;8.85;;;;;;;7.00;47.66;97110.38;5014011;28;20030;-53
2022/01/25 12:28:29;;;;;;;9.73;8.73;;;;;;;7.03;47.09;97118.91;5014080;28;20509;-57
2022/01/25 12:31:00;;;;;;;9.88;7.82;;;;;;;6.90;47.08;97120.53;5013515;28;20038;-59
2022/01/25 12:33:27;;;;;;;15.38;9.23;;;;;;;6.61;48.41;97122.09;5012990;28;20030;-55
2022/01/25 12:35:59;;;;;;;10.15;9.13;;;;;;;6.76;48.28;97113.41;5013142;28;20704;-57
2022/01/25 12:38:44;;;;;;;9.25;8.35;;;;;;;6.93;48.62;97101.16;5012641;28;20109;-58
2022/01/25 12:41:15;;;;;;;8.52;7.72;;;;;;;7.09;47.26;97091.53;5009460;28;20061;-55
2022/01/25 12:43:44;;;;;;;7.78;6.80;;;;;;;6.81;47.50;97093.06;5011426;28;20029;-57
2022/01/25 12:46:16;;;;;;;9.50;7.55;;;;;;;6.93;47.77;97090.69;5012985;28;20032;-55
2022/01/25 12:48:47;;;;;;;8.30;7.50;;;;;;;7.13;47.09;97092.22;5012624;28;20507;-54
2022/01/25 12:51:24;;;;;;;7.55;6.43;;;;;;;7.23;47.32;97084.69;5013624;28;20033;-56
2022/01/25 12:53:53;;;;;;;8.48;7.60;;;;;;;7.26;46.91;97092.38;5013169;28;20212;-55
2022/01/25 12:56:24;;;;;;;8.32;7.40;;;;;;;7.50;46.01;97081.41;5013202;28;20088;-54
2022/01/25 12:58:53;;;;;;;13.43;7.97;;;;;;;7.14;46.40;97079.00;5013054;28;20088;-56
2022/01/25 13:01:21;;;;;;;8.25;7.20;;;;;;;7.25;47.38;97069.72;5013683;28;20555;-56
2022/01/25 13:03:49;;;;;;;8.55;7.57;;;;;;;7.34;47.82;97079.66;5013082;28;20025;-55
2022/01/25 13:06:27;;;;;;;13.63;7.95;;;;;;;7.19;48.13;97080.56;5011525;28;20062;-55
2022/01/25 13:11:57;;;;;;;9.98;7.75;;;;;;;7.37;48.57;97071.63;5012482;28;20030;-58